sensor_id;sensor_type;location;lat;lon;timestamp;pressure;altitude;pressure_sealevel;temperature;humidity
41947;BME280;27638;42.184;24.848;2023-05-20T00:00:35;100056.53;;;16.99;98.78
41947;BME280;27638;42.184;24.848;2023-05-20T00:03:01;100053.88;;;17.05;97.70
41947;BME280;27638;42.184;24.848;2023-05-20T00:05:26;100046.69;;;17.06;96.87
41947;BME280;27638;42.184;24.848;2023-05-20T00:07:52;100052.88;;;17.06;96.51
41947;BME280;27638;42.184;24.848;2023-05-20T00:10:17;100057.59;;;17.04;96.66
41947;BME280;27638;42.184;24.848;2023-05-20T00:12:43;100051.56;;;16.68;98.57
41947;BME280;27638;42.184;24.848;2023-05-20T00:15:08;100039.94;;;16.60;99.08
41947;BME280;27638;42.184;24.848;2023-05-20T00:17:36;100042.09;;;16.65;98.78
41947;BME280;27638;42.184;24.848;2023-05-20T00:20:01;100043.97;;;16.50;99.49
41947;BME280;27638;42.184;24.848;2023-05-20T00:22:27;100043.34;;;16.26;100.00
41947;BME280;27638;42.184;24.848;2023-05-20T00:24:52;100043.78;;;15.87;100.00
41947;BME280;27638;42.184;24.848;2023-05-20T00:27:18;100040.91;;;15.89;100.00
41947;BME280;27638;42.184;24.848;2023-05-20T00:29:43;100032.28;;;16.08;100.00
41947;BME280;27638;42.184;24.848;2023-05-20T00:32:09;100029.47;;;16.16;100.00
41947;BME280;27638;42.184;24.848;2023-05-20T00:34:34;100024.91;;;16.10;100.00
41947;BME280;27638;42.184;24.848;2023-05-20T00:36:59;100022.88;;;15.91;100.00
41947;BME280;27638;42.184;24.848;2023-05-20T00:39:25;100027.38;;;15.90;100.00
41947;BME280;27638;42.184;24.848;2023-05-20T00:41:50;100024.94;;;15.74;100.00
41947;BME280;27638;42.184;24.848;2023-05-20T00:44:16;100018.53;;;15.90;100.00
41947;BME280;27638;42.184;24.848;2023-05-20T00:46:43;100019.34;;;15.69;100.00
41947;BME280;27638;42.184;24.848;2023-05-20T00:49:09;100018.31;;;15.70;100.00
41947;BME280;27638;42.184;24.848;2023-05-20T00:51:34;100023.75;;;15.98;100.00
41947;BME280;27638;42.184;24.848;2023-05-20T00:54:00;100020.59;;;16.09;100.00
41947;BME280;27638;42.184;24.848;2023-05-20T00:56:25;100014.53;;;16.22;100.00
41947;BME280;27638;42.184;24.848;2023-05-20T00:58:51;100013.97;;;16.26;100.00
41947;BME280;27638;42.184;24.848;2023-05-20T01:01:16;100008.03;;;16.31;100.00
41947;BME280;27638;42.184;24.848;2023-05-20T01:03:42;100004.63;;;15.94;100.00
41947;BME280;27638;42.184;24.848;2023-05-20T01:06:07;100004.25;;;15.98;100.00
41947;BME280;27638;42.184;24.848;2023-05-20T01:08:33;100014.84;;;16.12;100.00
41947;BME280;27638;42.184;24.848;2023-05-20T01:11:10;100009.69;;;16.32;100.00
41947;BME280;27638;42.184;24.848;2023-05-20T01:13:46;100015.34;;;16.44;100.00
41947;BME280;27638;42.184;24.848;2023-05-20T01:16:17;100014.00;;;16.33;100.00
41947;BME280;27638;42.184;24.848;2023-05-20T01:18:42;100005.81;;;16.35;100.00
41947;BME280;27638;42.184;24.848;2023-05-20T01:21:11;100003.56;;;16.38;99.68
41947;BME280;27638;42.184;24.848;2023-05-20T01:23:38;99997.06;;;16.47;98.32
41947;BME280;27638;42.184;24.848;2023-05-20T01:26:05;100005.53;;;16.51;98.41
41947;BME280;27638;42.184;24.848;2023-05-20T01:28:32;99993.22;;;16.56;97.83
41947;BME280;27638;42.184;24.848;2023-05-20T01:30:59;100004.25;;;16.47;96.90
41947;BME280;27638;42.184;24.848;2023-05-20T01:33:27;100001.28;;;16.35;97.70
41947;BME280;27638;42.184;24.848;2023-05-20T01:35:54;100001.00;;;16.51;96.40
41947;BME280;27638;42.184;24.848;2023-05-20T01:38:20;99995.22;;;16.48;95.92
41947;BME280;27638;42.184;24.848;2023-05-20T01:40:48;99999.88;;;16.39;96.87
41947;BME280;27638;42.184;24.848;2023-05-20T01:43:15;100003.75;;;16.37;96.96
41947;BME280;27638;42.184;24.848;2023-05-20T01:45:41;100001.66;;;16.32;97.30
41947;BME280;27638;42.184;24.848;2023-05-20T01:48:09;100002.88;;;16.29;97.59
41947;BME280;27638;42.184;24.848;2023-05-20T01:50:36;100005.16;;;16.33;97.60
41947;BME280;27638;42.184;24.848;2023-05-20T01:53:01;99995.31;;;16.33;97.16
41947;BME280;27638;42.184;24.848;2023-05-20T01:55:27;99983.16;;;16.31;96.68
41947;BME280;27638;42.184;24.848;2023-05-20T01:57:52;99983.88;;;16.18;96.36
41947;BME280;27638;42.184;24.848;2023-05-20T02:00:18;99988.53;;;16.09;97.15
41947;BME280;27638;42.184;24.848;2023-05-20T02:02:43;99975.09;;;16.03;98.15
41947;BME280;27638;42.184;24.848;2023-05-20T02:05:09;99977.34;;;15.99;98.96
41947;BME280;27638;42.184;24.848;2023-05-20T02:07:34;99961.31;;;15.99;98.33
41947;BME280;27638;42.184;24.848;2023-05-20T02:10:00;99962.72;;;15.95;98.18
41947;BME280;27638;42.184;24.848;2023-05-20T02:12:25;99965.56;;;15.93;98.26
41947;BME280;27638;42.184;24.848;2023-05-20T02:14:50;99964.38;;;15.96;97.53
41947;BME280;27638;42.184;24.848;2023-05-20T02:17:16;99963.97;;;15.99;97.22
41947;BME280;27638;42.184;24.848;2023-05-20T02:19:43;99952.22;;;15.93;96.52
41947;BME280;27638;42.184;24.848;2023-05-20T02:22:08;99962.06;;;15.93;96.90
41947;BME280;27638;42.184;24.848;2023-05-20T02:24:34;99961.06;;;15.94;97.10
41947;BME280;27638;42.184;24.848;2023-05-20T02:26:59;99964.19;;;15.98;96.52
41947;BME280;27638;42.184;24.848;2023-05-20T02:29:25;99956.16;;;15.98;95.85
41947;BME280;27638;42.184;24.848;2023-05-20T02:31:51;99958.53;;;15.86;96.33
41947;BME280;27638;42.184;24.848;2023-05-20T02:34:17;99965.63;;;15.79;97.64
41947;BME280;27638;42.184;24.848;2023-05-20T02:36:42;99962.66;;;15.67;98.07
41947;BME280;27638;42.184;24.848;2023-05-20T02:39:08;99965.41;;;15.59;98.94
41947;BME280;27638;42.184;24.848;2023-05-20T02:41:33;99970.00;;;15.65;99.39
41947;BME280;27638;42.184;24.848;2023-05-20T02:43:59;99973.38;;;15.74;99.30
41947;BME280;27638;42.184;24.848;2023-05-20T02:46:24;99978.59;;;15.82;98.52
41947;BME280;27638;42.184;24.848;2023-05-20T02:48:50;99974.41;;;15.94;97.64
41947;BME280;27638;42.184;24.848;2023-05-20T02:51:15;99974.91;;;16.04;96.56
41947;BME280;27638;42.184;24.848;2023-05-20T02:53:41;99985.47;;;16.12;95.22
41947;BME280;27638;42.184;24.848;2023-05-20T02:56:06;99984.84;;;16.10;94.84
41947;BME280;27638;42.184;24.848;2023-05-20T02:58:33;99991.50;;;16.21;94.02
41947;BME280;27638;42.184;24.848;2023-05-20T03:01:00;99991.75;;;16.26;93.27
41947;BME280;27638;42.184;24.848;2023-05-20T03:03:26;99988.50;;;16.31;92.55
41947;BME280;27638;42.184;24.848;2023-05-20T03:05:52;99989.97;;;16.33;92.45
41947;BME280;27638;42.184;24.848;2023-05-20T03:08:19;100002.25;;;16.27;91.81
41947;BME280;27638;42.184;24.848;2023-05-20T03:10:45;100013.59;;;16.08;90.78
41947;BME280;27638;42.184;24.848;2023-05-20T03:13:10;100012.53;;;15.67;92.64
41947;BME280;27638;42.184;24.848;2023-05-20T03:15:37;100022.84;;;15.40;93.95
41947;BME280;27638;42.184;24.848;2023-05-20T03:18:03;100037.13;;;15.03;97.61
41947;BME280;27638;42.184;24.848;2023-05-20T03:20:29;100044.25;;;14.73;100.00
41947;BME280;27638;42.184;24.848;2023-05-20T03:22:54;100045.28;;;14.72;100.00
41947;BME280;27638;42.184;24.848;2023-05-20T03:25:21;100044.91;;;14.75;100.00
41947;BME280;27638;42.184;24.848;2023-05-20T03:27:47;100041.16;;;14.84;100.00
41947;BME280;27638;42.184;24.848;2023-05-20T03:30:12;100046.22;;;14.94;100.00
41947;BME280;27638;42.184;24.848;2023-05-20T03:32:38;100055.75;;;14.74;100.00
41947;BME280;27638;42.184;24.848;2023-05-20T03:35:05;100059.63;;;14.48;100.00
41947;BME280;27638;42.184;24.848;2023-05-20T03:37:31;100052.91;;;14.52;100.00
41947;BME280;27638;42.184;24.848;2023-05-20T03:39:56;100045.47;;;14.85;100.00
41947;BME280;27638;42.184;24.848;2023-05-20T03:42:21;100046.78;;;15.04;100.00
41947;BME280;27638;42.184;24.848;2023-05-20T03:44:47;100043.66;;;15.15;100.00
41947;BME280;27638;42.184;24.848;2023-05-20T03:47:12;100043.91;;;14.91;100.00
41947;BME280;27638;42.184;24.848;2023-05-20T03:49:38;100035.75;;;14.92;100.00
41947;BME280;27638;42.184;24.848;2023-05-20T03:52:05;100021.59;;;15.07;100.00
41947;BME280;27638;42.184;24.848;2023-05-20T03:54:31;100026.53;;;15.24;100.00
41947;BME280;27638;42.184;24.848;2023-05-20T03:56:56;100023.31;;;15.29;100.00
41947;BME280;27638;42.184;24.848;2023-05-20T03:59:21;100023.31;;;15.29;100.00
41947;BME280;27638;42.184;24.848;2023-05-20T04:01:47;100024.69;;;15.40;100.00
41947;BME280;27638;42.184;24.848;2023-05-20T04:04:12;100023.94;;;15.46;100.00
41947;BME280;27638;42.184;24.848;2023-05-20T04:06:38;100026.88;;;15.51;100.00
41947;BME280;27638;42.184;24.848;2023-05-20T04:09:04;100036.78;;;15.57;100.00
41947;BME280;27638;42.184;24.848;2023-05-20T04:11:30;100042.28;;;15.63;100.00
41947;BME280;27638;42.184;24.848;2023-05-20T04:13:56;100037.19;;;15.69;100.00
41947;BME280;27638;42.184;24.848;2023-05-20T04:16:22;100036.53;;;15.81;100.00
41947;BME280;27638;42.184;24.848;2023-05-20T04:18:48;100031.44;;;15.86;100.00
41947;BME280;27638;42.184;24.848;2023-05-20T04:21:14;100022.59;;;15.86;100.00
41947;BME280;27638;42.184;24.848;2023-05-20T04:23:40;100021.59;;;15.87;100.00
41947;BME280;27638;42.184;24.848;2023-05-20T04:26:05;100027.13;;;15.85;100.00
41947;BME280;27638;42.184;24.848;2023-05-20T04:28:31;100017.84;;;15.81;100.00
41947;BME280;27638;42.184;24.848;2023-05-20T04:31:00;100015.41;;;15.86;100.00
41947;BME280;27638;42.184;24.848;2023-05-20T04:33:28;100022.41;;;16.09;99.66
41947;BME280;27638;42.184;24.848;2023-05-20T04:35:54;100031.25;;;16.31;97.98
41947;BME280;27638;42.184;24.848;2023-05-20T04:38:23;100041.53;;;16.55;96.74
41947;BME280;27638;42.184;24.848;2023-05-20T04:40:57;100038.31;;;16.81;95.11
41947;BME280;27638;42.184;24.848;2023-05-20T04:43:27;100051.41;;;17.04;93.01
41947;BME280;27638;42.184;24.848;2023-05-20T04:45:57;100059.59;;;17.30;91.31
41947;BME280;27638;42.184;24.848;2023-05-20T04:48:24;100057.84;;;17.50;90.25
41947;BME280;27638;42.184;24.848;2023-05-20T04:50:50;100053.88;;;17.74;88.35
41947;BME280;27638;42.184;24.848;2023-05-20T04:53:19;100059.72;;;18.04;85.96
41947;BME280;27638;42.184;24.848;2023-05-20T04:55:46;100058.94;;;18.24;83.96
41947;BME280;27638;42.184;24.848;2023-05-20T04:58:12;100049.47;;;18.34;83.31
41947;BME280;27638;42.184;24.848;2023-05-20T05:00:42;100044.72;;;18.49;81.79
41947;BME280;27638;42.184;24.848;2023-05-20T05:03:08;100054.63;;;18.56;79.93
41947;BME280;27638;42.184;24.848;2023-05-20T05:05:34;100054.84;;;18.61;80.43
41947;BME280;27638;42.184;24.848;2023-05-20T05:08:02;100053.81;;;18.68;79.82
41947;BME280;27638;42.184;24.848;2023-05-20T05:10:27;100062.72;;;18.82;79.61
41947;BME280;27638;42.184;24.848;2023-05-20T05:12:53;100059.19;;;18.95;77.07
41947;BME280;27638;42.184;24.848;2023-05-20T05:15:18;100056.47;;;19.14;76.30
41947;BME280;27638;42.184;24.848;2023-05-20T05:17:43;100062.63;;;19.35;74.24
41947;BME280;27638;42.184;24.848;2023-05-20T05:20:09;100060.72;;;19.42;73.69
41947;BME280;27638;42.184;24.848;2023-05-20T05:22:35;100061.31;;;19.51;73.93
41947;BME280;27638;42.184;24.848;2023-05-20T05:25:02;100061.66;;;19.81;72.28
41947;BME280;27638;42.184;24.848;2023-05-20T05:27:27;100058.69;;;19.95;69.99
41947;BME280;27638;42.184;24.848;2023-05-20T05:29:53;100056.09;;;20.14;69.76
41947;BME280;27638;42.184;24.848;2023-05-20T05:32:18;100062.59;;;20.31;70.10
41947;BME280;27638;42.184;24.848;2023-05-20T05:34:44;100069.41;;;20.40;69.44
41947;BME280;27638;42.184;24.848;2023-05-20T05:37:10;100051.56;;;20.46;68.01
41947;BME280;27638;42.184;24.848;2023-05-20T05:39:35;100060.41;;;20.53;68.53
41947;BME280;27638;42.184;24.848;2023-05-20T05:42:02;100060.78;;;20.56;68.96
41947;BME280;27638;42.184;24.848;2023-05-20T05:44:28;100056.06;;;20.77;68.74
41947;BME280;27638;42.184;24.848;2023-05-20T05:46:53;100059.81;;;21.00;68.75
41947;BME280;27638;42.184;24.848;2023-05-20T05:49:19;100064.84;;;21.15;67.43
41947;BME280;27638;42.184;24.848;2023-05-20T05:51:44;100057.97;;;21.38;66.63
41947;BME280;27638;42.184;24.848;2023-05-20T05:54:09;100045.47;;;21.61;64.28
41947;BME280;27638;42.184;24.848;2023-05-20T05:56:35;100056.81;;;21.82;62.68
41947;BME280;27638;42.184;24.848;2023-05-20T05:59:00;100048.44;;;21.90;61.82
41947;BME280;27638;42.184;24.848;2023-05-20T06:01:26;100050.19;;;22.14;62.02
41947;BME280;27638;42.184;24.848;2023-05-20T06:03:51;100048.59;;;22.25;62.53
41947;BME280;27638;42.184;24.848;2023-05-20T06:06:17;100049.03;;;22.22;63.64
41947;BME280;27638;42.184;24.848;2023-05-20T06:08:42;100038.22;;;22.10;61.79
41947;BME280;27638;42.184;24.848;2023-05-20T06:11:08;100047.44;;;22.33;62.08
41947;BME280;27638;42.184;24.848;2023-05-20T06:13:34;100042.28;;;22.43;61.75
41947;BME280;27638;42.184;24.848;2023-05-20T06:16:00;100045.25;;;22.65;61.13
41947;BME280;27638;42.184;24.848;2023-05-20T06:18:25;100043.88;;;22.85;60.24
41947;BME280;27638;42.184;24.848;2023-05-20T06:20:55;100044.72;;;22.98;59.19
41947;BME280;27638;42.184;24.848;2023-05-20T06:23:21;100044.00;;;23.14;58.63
41947;BME280;27638;42.184;24.848;2023-05-20T06:25:47;100044.19;;;23.47;57.17
41947;BME280;27638;42.184;24.848;2023-05-20T06:28:13;100039.25;;;23.44;54.87
41947;BME280;27638;42.184;24.848;2023-05-20T06:30:39;100048.13;;;23.68;54.33
41947;BME280;27638;42.184;24.848;2023-05-20T06:33:05;100043.13;;;23.60;54.40
41947;BME280;27638;42.184;24.848;2023-05-20T06:35:30;100051.53;;;23.75;53.60
41947;BME280;27638;42.184;24.848;2023-05-20T06:37:58;100047.84;;;23.93;52.88
41947;BME280;27638;42.184;24.848;2023-05-20T06:40:25;100048.50;;;24.00;51.91
41947;BME280;27638;42.184;24.848;2023-05-20T06:42:51;100040.38;;;24.29;51.61
41947;BME280;27638;42.184;24.848;2023-05-20T06:45:17;100040.22;;;24.52;51.99
41947;BME280;27638;42.184;24.848;2023-05-20T06:47:43;100037.28;;;24.70;50.72
41947;BME280;27638;42.184;24.848;2023-05-20T06:50:09;100031.78;;;24.65;48.55
41947;BME280;27638;42.184;24.848;2023-05-20T06:52:35;100043.34;;;24.61;47.69
41947;BME280;27638;42.184;24.848;2023-05-20T06:55:01;100036.75;;;24.23;46.39
41947;BME280;27638;42.184;24.848;2023-05-20T06:57:26;100033.66;;;24.31;46.94
41947;BME280;27638;42.184;24.848;2023-05-20T06:59:51;100030.47;;;24.68;47.01
41947;BME280;27638;42.184;24.848;2023-05-20T07:02:17;100025.28;;;24.83;45.39
41947;BME280;27638;42.184;24.848;2023-05-20T07:04:42;100020.25;;;24.92;45.01
41947;BME280;27638;42.184;24.848;2023-05-20T07:07:08;100021.53;;;25.01;45.20
41947;BME280;27638;42.184;24.848;2023-05-20T07:09:33;100025.09;;;24.90;45.79
41947;BME280;27638;42.184;24.848;2023-05-20T07:11:58;100022.66;;;25.05;45.63
41947;BME280;27638;42.184;24.848;2023-05-20T07:14:24;100024.56;;;25.26;46.36
41947;BME280;27638;42.184;24.848;2023-05-20T07:16:49;100023.06;;;25.13;44.45
41947;BME280;27638;42.184;24.848;2023-05-20T07:19:15;100034.22;;;25.39;45.86
41947;BME280;27638;42.184;24.848;2023-05-20T07:21:40;100025.47;;;25.54;45.02
41947;BME280;27638;42.184;24.848;2023-05-20T07:24:06;100022.00;;;25.58;43.28
41947;BME280;27638;42.184;24.848;2023-05-20T07:26:31;100017.91;;;25.34;45.76
41947;BME280;27638;42.184;24.848;2023-05-20T07:29:00;100026.53;;;25.09;45.03
41947;BME280;27638;42.184;24.848;2023-05-20T07:31:26;100029.44;;;24.91;46.71
41947;BME280;27638;42.184;24.848;2023-05-20T07:33:51;100017.97;;;25.17;47.67
41947;BME280;27638;42.184;24.848;2023-05-20T07:36:17;100019.41;;;25.46;45.27
41947;BME280;27638;42.184;24.848;2023-05-20T07:38:42;100022.44;;;25.72;42.10
41947;BME280;27638;42.184;24.848;2023-05-20T07:41:08;100028.28;;;25.86;40.55
41947;BME280;27638;42.184;24.848;2023-05-20T07:43:33;100026.66;;;26.12;41.14
41947;BME280;27638;42.184;24.848;2023-05-20T07:45:58;100030.16;;;26.34;42.88
41947;BME280;27638;42.184;24.848;2023-05-20T07:48:24;100024.25;;;26.42;39.96
41947;BME280;27638;42.184;24.848;2023-05-20T07:50:49;100027.41;;;26.66;39.43
41947;BME280;27638;42.184;24.848;2023-05-20T07:53:15;100024.22;;;26.74;38.47
41947;BME280;27638;42.184;24.848;2023-05-20T07:55:40;100010.19;;;26.87;38.68
41947;BME280;27638;42.184;24.848;2023-05-20T07:58:05;100007.91;;;27.11;38.63
41947;BME280;27638;42.184;24.848;2023-05-20T08:00:31;100009.31;;;27.19;40.02
41947;BME280;27638;42.184;24.848;2023-05-20T08:02:56;100019.06;;;27.10;40.37
41947;BME280;27638;42.184;24.848;2023-05-20T08:05:22;100017.28;;;27.35;39.20
41947;BME280;27638;42.184;24.848;2023-05-20T08:07:47;100010.72;;;26.89;40.81
41947;BME280;27638;42.184;24.848;2023-05-20T08:10:13;100014.22;;;26.85;40.82
41947;BME280;27638;42.184;24.848;2023-05-20T08:12:38;100010.94;;;27.20;40.95
41947;BME280;27638;42.184;24.848;2023-05-20T08:15:04;100019.66;;;27.22;38.40
41947;BME280;27638;42.184;24.848;2023-05-20T08:17:31;100015.34;;;27.31;37.63
41947;BME280;27638;42.184;24.848;2023-05-20T08:19:57;100020.81;;;27.36;36.29
41947;BME280;27638;42.184;24.848;2023-05-20T08:22:22;100017.84;;;27.43;37.82
41947;BME280;27638;42.184;24.848;2023-05-20T08:24:47;100009.75;;;27.58;38.94
41947;BME280;27638;42.184;24.848;2023-05-20T08:27:13;100014.13;;;27.64;38.17
41947;BME280;27638;42.184;24.848;2023-05-20T08:29:38;100018.81;;;27.84;38.62
41947;BME280;27638;42.184;24.848;2023-05-20T08:32:04;100012.53;;;27.78;38.43
41947;BME280;27638;42.184;24.848;2023-05-20T08:34:29;100011.75;;;27.83;36.83
41947;BME280;27638;42.184;24.848;2023-05-20T08:36:55;100015.81;;;27.80;36.11
41947;BME280;27638;42.184;24.848;2023-05-20T08:39:22;100009.94;;;27.36;38.03
41947;BME280;27638;42.184;24.848;2023-05-20T08:41:47;100001.63;;;26.04;40.56
41947;BME280;27638;42.184;24.848;2023-05-20T08:44:13;100007.06;;;25.34;44.47
41947;BME280;27638;42.184;24.848;2023-05-20T08:46:39;100005.06;;;24.91;43.44
41947;BME280;27638;42.184;24.848;2023-05-20T08:49:06;100011.78;;;24.49;44.37
41947;BME280;27638;42.184;24.848;2023-05-20T08:51:32;100007.63;;;24.13;46.37
41947;BME280;27638;42.184;24.848;2023-05-20T08:53:58;100018.09;;;24.38;48.18
41947;BME280;27638;42.184;24.848;2023-05-20T08:56:24;100009.56;;;24.30;48.24
41947;BME280;27638;42.184;24.848;2023-05-20T08:58:51;100007.72;;;23.90;47.57
41947;BME280;27638;42.184;24.848;2023-05-20T09:01:18;100011.41;;;24.12;45.87
41947;BME280;27638;42.184;24.848;2023-05-20T09:03:43;100013.56;;;24.27;44.32
41947;BME280;27638;42.184;24.848;2023-05-20T09:06:09;100017.13;;;23.87;48.50
41947;BME280;27638;42.184;24.848;2023-05-20T09:08:34;100011.97;;;23.46;48.98
41947;BME280;27638;42.184;24.848;2023-05-20T09:11:00;100000.66;;;23.20;48.97
41947;BME280;27638;42.184;24.848;2023-05-20T09:13:26;100011.47;;;23.09;52.99
41947;BME280;27638;42.184;24.848;2023-05-20T09:15:52;100012.03;;;23.22;52.62
41947;BME280;27638;42.184;24.848;2023-05-20T09:18:17;100015.44;;;23.30;53.33
41947;BME280;27638;42.184;24.848;2023-05-20T09:20:46;100016.41;;;23.12;52.38
41947;BME280;27638;42.184;24.848;2023-05-20T09:23:11;100010.84;;;23.30;50.23
41947;BME280;27638;42.184;24.848;2023-05-20T09:25:37;100007.72;;;23.62;53.34
41947;BME280;27638;42.184;24.848;2023-05-20T09:28:06;100008.78;;;23.89;48.29
41947;BME280;27638;42.184;24.848;2023-05-20T09:30:32;99998.09;;;23.94;48.72
41947;BME280;27638;42.184;24.848;2023-05-20T09:32:59;99994.75;;;23.75;48.23
41947;BME280;27638;42.184;24.848;2023-05-20T09:35:26;99992.53;;;23.72;50.65
41947;BME280;27638;42.184;24.848;2023-05-20T09:37:56;99998.16;;;23.71;50.08
41947;BME280;27638;42.184;24.848;2023-05-20T09:40:23;99986.59;;;23.47;48.68
41947;BME280;27638;42.184;24.848;2023-05-20T09:42:56;99991.75;;;23.48;49.46
41947;BME280;27638;42.184;24.848;2023-05-20T09:45:24;99988.06;;;23.26;49.96
41947;BME280;27638;42.184;24.848;2023-05-20T09:47:50;99989.16;;;23.53;50.34
41947;BME280;27638;42.184;24.848;2023-05-20T09:50:18;99996.25;;;23.54;51.54
41947;BME280;27638;42.184;24.848;2023-05-20T09:52:48;99985.69;;;23.41;51.23
41947;BME280;27638;42.184;24.848;2023-05-20T09:55:15;99982.50;;;23.44;53.02
41947;BME280;27638;42.184;24.848;2023-05-20T09:57:42;99997.97;;;23.61;52.32
41947;BME280;27638;42.184;24.848;2023-05-20T10:00:08;99987.31;;;23.42;51.12
41947;BME280;27638;42.184;24.848;2023-05-20T10:02:34;99983.00;;;23.30;50.33
41947;BME280;27638;42.184;24.848;2023-05-20T10:05:06;99993.31;;;23.44;53.40
41947;BME280;27638;42.184;24.848;2023-05-20T10:21:15;99982.16;;;23.41;51.60
41947;BME280;27638;42.184;24.848;2023-05-20T10:23:41;99976.75;;;23.41;51.61
41947;BME280;27638;42.184;24.848;2023-05-20T10:26:08;99981.41;;;23.17;49.22
41947;BME280;27638;42.184;24.848;2023-05-20T10:28:34;99973.63;;;23.20;48.57
41947;BME280;27638;42.184;24.848;2023-05-20T10:31:01;99977.66;;;23.06;48.26
41947;BME280;27638;42.184;24.848;2023-05-20T10:33:28;99984.84;;;23.01;51.27
41947;BME280;27638;42.184;24.848;2023-05-20T10:35:57;99987.41;;;22.60;51.51
41947;BME280;27638;42.184;24.848;2023-05-20T10:38:22;99976.13;;;22.52;57.62
41947;BME280;27638;42.184;24.848;2023-05-20T10:40:48;99973.78;;;22.32;57.29
41947;BME280;27638;42.184;24.848;2023-05-20T10:43:15;99974.47;;;22.27;56.87
41947;BME280;27638;42.184;24.848;2023-05-20T10:45:52;99980.81;;;22.33;55.75
41947;BME280;27638;42.184;24.848;2023-05-20T10:48:26;99975.16;;;22.11;57.28
41947;BME280;27638;42.184;24.848;2023-05-20T10:50:57;99976.25;;;21.92;56.89
41947;BME280;27638;42.184;24.848;2023-05-20T10:53:25;99967.44;;;21.85;57.69
41947;BME280;27638;42.184;24.848;2023-05-20T10:55:52;99963.75;;;21.79;57.63
41947;BME280;27638;42.184;24.848;2023-05-20T10:58:22;99967.34;;;21.91;58.91
41947;BME280;27638;42.184;24.848;2023-05-20T11:00:51;99968.41;;;22.02;60.87
41947;BME280;27638;42.184;24.848;2023-05-20T11:03:17;99969.47;;;22.01;60.20
41947;BME280;27638;42.184;24.848;2023-05-20T11:05:45;99969.84;;;22.05;58.11
41947;BME280;27638;42.184;24.848;2023-05-20T11:08:12;99963.44;;;22.17;56.84
41947;BME280;27638;42.184;24.848;2023-05-20T11:10:38;99965.31;;;22.28;58.12
41947;BME280;27638;42.184;24.848;2023-05-20T11:13:05;99953.59;;;22.35;56.21
41947;BME280;27638;42.184;24.848;2023-05-20T11:15:33;99951.59;;;22.53;54.92
41947;BME280;27638;42.184;24.848;2023-05-20T11:18:00;99960.41;;;22.49;51.18
41947;BME280;27638;42.184;24.848;2023-05-20T11:20:26;99962.88;;;22.50;54.23
41947;BME280;27638;42.184;24.848;2023-05-20T11:22:53;99960.63;;;22.59;53.29
41947;BME280;27638;42.184;24.848;2023-05-20T11:25:19;99961.09;;;22.44;52.74
41947;BME280;27638;42.184;24.848;2023-05-20T11:27:48;99959.00;;;22.46;52.35
41947;BME280;27638;42.184;24.848;2023-05-20T11:30:15;99958.06;;;22.29;53.39
41947;BME280;27638;42.184;24.848;2023-05-20T11:32:43;99954.88;;;22.20;52.94
41947;BME280;27638;42.184;24.848;2023-05-20T11:35:21;99955.34;;;22.29;54.77
41947;BME280;27638;42.184;24.848;2023-05-20T11:37:53;99955.25;;;22.36;54.57
41947;BME280;27638;42.184;24.848;2023-05-20T11:40:23;99943.84;;;22.34;53.69
41947;BME280;27638;42.184;24.848;2023-05-20T11:42:53;99953.13;;;22.38;49.90
41947;BME280;27638;42.184;24.848;2023-05-20T11:45:18;99941.97;;;22.34;48.25
41947;BME280;27638;42.184;24.848;2023-05-20T11:47:44;99943.16;;;22.38;47.21
41947;BME280;27638;42.184;24.848;2023-05-20T11:50:10;99937.75;;;22.50;48.29
41947;BME280;27638;42.184;24.848;2023-05-20T11:52:40;99938.00;;;22.60;48.86
41947;BME280;27638;42.184;24.848;2023-05-20T11:55:09;99935.06;;;22.61;49.63
41947;BME280;27638;42.184;24.848;2023-05-20T11:57:37;99936.13;;;22.60;49.75
41947;BME280;27638;42.184;24.848;2023-05-20T12:00:02;99939.97;;;22.76;53.23
41947;BME280;27638;42.184;24.848;2023-05-20T12:02:31;99940.34;;;22.80;52.45
41947;BME280;27638;42.184;24.848;2023-05-20T12:04:56;99935.63;;;22.75;50.64
41947;BME280;27638;42.184;24.848;2023-05-20T12:07:22;99931.31;;;22.98;46.43
41947;BME280;27638;42.184;24.848;2023-05-20T12:09:47;99931.88;;;22.88;47.01
41947;BME280;27638;42.184;24.848;2023-05-20T12:12:13;99926.84;;;22.91;49.07
41947;BME280;27638;42.184;24.848;2023-05-20T12:14:38;99941.03;;;22.87;47.72
41947;BME280;27638;42.184;24.848;2023-05-20T12:17:04;99934.47;;;22.71;46.77
41947;BME280;27638;42.184;24.848;2023-05-20T12:19:29;99934.09;;;22.79;48.14
41947;BME280;27638;42.184;24.848;2023-05-20T12:21:55;99926.38;;;22.71;46.62
41947;BME280;27638;42.184;24.848;2023-05-20T12:24:20;99923.31;;;22.68;50.56
41947;BME280;27638;42.184;24.848;2023-05-20T12:26:45;99922.94;;;22.76;48.06
41947;BME280;27638;42.184;24.848;2023-05-20T12:29:11;99920.75;;;22.61;45.77
41947;BME280;27638;42.184;24.848;2023-05-20T12:31:37;99915.34;;;22.61;47.54
41947;BME280;27638;42.184;24.848;2023-05-20T12:34:02;99915.59;;;22.59;47.75
41947;BME280;27638;42.184;24.848;2023-05-20T12:36:27;99923.09;;;22.57;45.86
41947;BME280;27638;42.184;24.848;2023-05-20T12:38:53;99909.50;;;22.52;46.97
41947;BME280;27638;42.184;24.848;2023-05-20T12:41:18;99906.78;;;22.52;48.78
41947;BME280;27638;42.184;24.848;2023-05-20T12:43:44;99904.66;;;22.66;49.53
41947;BME280;27638;42.184;24.848;2023-05-20T12:46:09;99908.97;;;22.79;50.79
41947;BME280;27638;42.184;24.848;2023-05-20T12:48:35;99909.47;;;22.64;51.81
41947;BME280;27638;42.184;24.848;2023-05-20T12:51:01;99904.56;;;22.38;50.61